createdAt,value
2022-09-23T00:02:16.779Z,61.11
2022-09-23T00:04:46.726Z,61.45
2022-09-23T00:07:16.338Z,61.64
2022-09-23T00:09:44.734Z,61.66
2022-09-23T00:12:13.012Z,61.92
2022-09-23T00:14:41.523Z,62.19
2022-09-23T00:17:09.878Z,61.93
2022-09-23T00:19:40.162Z,62.25
2022-09-23T00:22:08.914Z,62.32
2022-09-23T00:24:39.874Z,62.37
2022-09-23T00:27:08.113Z,62.46
2022-09-23T00:29:36.921Z,62.90
2022-09-23T00:32:05.941Z,63.00
2022-09-23T00:34:34.536Z,63.01
2022-09-23T00:37:02.862Z,63.04
2022-09-23T00:39:31.554Z,63.22
2022-09-23T00:42:01.434Z,63.02
2022-09-23T00:44:49.231Z,62.88
2022-09-23T00:47:23.602Z,63.08
2022-09-23T00:50:00.351Z,63.18
2022-09-23T00:52:29.169Z,63.22
2022-09-23T00:55:01.186Z,63.33
2022-09-23T00:57:31.635Z,63.51
2022-09-23T01:00:00.797Z,63.63
2022-09-23T01:02:29.693Z,63.82
2022-09-23T01:04:58.254Z,64.02
2022-09-23T01:07:27.211Z,63.92
2022-09-23T01:09:55.682Z,64.05
2022-09-23T01:12:54.499Z,64.17
2022-09-23T01:15:31.267Z,64.50
2022-09-23T01:18:11.549Z,64.55
2022-09-23T01:20:59.307Z,64.65
2022-09-23T01:24:23.322Z,65.04
2022-09-23T01:27:00.953Z,65.25
2022-09-23T01:30:06.466Z,65.42
2022-09-23T01:32:47.509Z,65.79
2022-09-23T01:35:30.381Z,65.94
2022-09-23T01:38:12.686Z,65.83
2022-09-23T01:40:49.656Z,66.08
2022-09-23T01:43:24.876Z,65.87
2022-09-23T01:45:57.962Z,66.27
2022-09-23T01:48:33.375Z,65.79
2022-09-23T01:51:08.214Z,66.14
2022-09-23T01:53:46.452Z,66.29
2022-09-23T01:56:20.941Z,66.01
2022-09-23T01:58:58.192Z,65.99
2022-09-23T02:01:37.658Z,66.40
2022-09-23T02:04:11.482Z,66.41
2022-09-23T02:06:46.559Z,66.05
2022-09-23T02:09:19.981Z,66.12
2022-09-23T02:11:52.532Z,66.19
2022-09-23T02:14:26.023Z,65.86
2022-09-23T02:16:58.414Z,65.82
2022-09-23T02:19:33.285Z,66.10
2022-09-23T02:22:04.985Z,66.20
2022-09-23T02:24:38.983Z,66.40
2022-09-23T02:27:20.250Z,66.07
2022-09-23T02:29:55.588Z,66.14
2022-09-23T02:32:32.973Z,66.23
2022-09-23T02:35:12.130Z,66.02
2022-09-23T02:37:47.547Z,66.07
2022-09-23T02:40:23.872Z,66.21
2022-09-23T02:43:07.860Z,66.68
2022-09-23T02:45:39.146Z,66.54
2022-09-23T02:48:13.593Z,66.84
2022-09-23T02:50:43.827Z,66.90
2022-09-23T02:53:12.377Z,67.07
2022-09-23T02:55:42.325Z,67.04
2022-09-23T02:58:13.406Z,67.10
2022-09-23T03:00:55.238Z,67.30
2022-09-23T03:03:40.871Z,67.91
2022-09-23T03:06:31.617Z,67.66
2022-09-23T03:09:06.003Z,67.74
2022-09-23T03:11:39.977Z,67.99
2022-09-23T03:14:18.142Z,68.19
2022-09-23T03:16:53.785Z,68.11
2022-09-23T03:19:29.604Z,67.77
2022-09-23T03:22:07.019Z,68.17
2022-09-23T03:24:39.489Z,68.43
2022-09-23T03:27:13.780Z,68.67
2022-09-23T03:29:47.251Z,68.53
2022-09-23T03:32:18.227Z,68.36
2022-09-23T03:34:51.371Z,68.37
2022-09-23T03:37:30.155Z,68.73
2022-09-23T03:40:06.520Z,68.74
2022-09-23T03:42:36.484Z,68.87
2022-09-23T03:45:09.274Z,68.67
2022-09-23T03:47:39.319Z,68.73
2022-09-23T03:50:08.851Z,68.91
2022-09-23T03:52:39.716Z,69.05
2022-09-23T03:55:09.942Z,69.47
2022-09-23T03:57:38.415Z,69.92
2022-09-23T04:00:09.302Z,69.72
2022-09-23T04:02:41.022Z,69.53
2022-09-23T04:05:11.379Z,69.05
2022-09-23T04:07:41.145Z,69.45
2022-09-23T04:10:11.288Z,69.38
2022-09-23T04:12:39.970Z,69.31
2022-09-23T04:15:09.496Z,69.16
2022-09-23T04:17:37.926Z,69.51
2022-09-23T04:20:07.470Z,69.48
2022-09-23T04:22:37.697Z,69.58
2022-09-23T04:25:09.282Z,69.56
2022-09-23T04:27:38.030Z,69.45
2022-09-23T04:30:07.947Z,69.84
2022-09-23T04:32:36.334Z,69.74
2022-09-23T04:35:05.659Z,69.98
2022-09-23T04:37:34.025Z,69.91
2022-09-23T04:40:03.163Z,69.96
2022-09-23T04:42:33.072Z,70.02
2022-09-23T04:45:01.511Z,70.06
2022-09-23T04:47:32.535Z,70.11
2022-09-23T04:50:00.816Z,70.50
2022-09-23T04:52:31.232Z,70.57
2022-09-23T04:54:59.497Z,71.29
2022-09-23T04:57:28.224Z,71.56
2022-09-23T04:59:57.860Z,72.02
2022-09-23T05:02:26.302Z,71.74
2022-09-23T05:04:54.957Z,72.48
2022-09-23T05:07:23.521Z,72.87
2022-09-23T05:09:51.829Z,73.37
2022-09-23T05:12:20.179Z,73.61
2022-09-23T05:14:48.457Z,74.10
2022-09-23T05:17:18.241Z,74.30
2022-09-23T05:19:46.914Z,74.54
2022-09-23T05:22:15.380Z,74.52
2022-09-23T05:24:43.827Z,74.87
2022-09-23T05:27:12.106Z,75.07
2022-09-23T05:29:41.092Z,74.81
2022-09-23T05:32:09.750Z,75.32
2022-09-23T05:34:39.788Z,75.09
2022-09-23T05:37:08.254Z,75.52
2022-09-23T05:39:36.820Z,75.54
2022-09-23T05:42:05.913Z,75.65
2022-09-23T05:44:34.204Z,75.71
2022-09-23T05:47:02.700Z,76.04
2022-09-23T05:49:55.196Z,75.90
2022-09-23T05:52:20.833Z,75.35
2022-09-23T05:54:49.872Z,75.52
2022-09-23T05:57:18.998Z,75.65
2022-09-23T05:59:47.735Z,75.62
2022-09-23T06:02:16.363Z,75.77
2022-09-23T06:04:45.474Z,75.74
2022-09-23T06:07:13.905Z,76.16
2022-09-23T06:09:44.012Z,76.06
2022-09-23T06:12:14.157Z,75.81
2022-09-23T06:14:42.590Z,76.06
2022-09-23T06:17:10.951Z,76.38
2022-09-23T06:19:39.487Z,76.83
2022-09-23T06:22:07.776Z,76.87
2022-09-23T06:24:36.303Z,76.71
2022-09-23T06:27:06.759Z,76.85
2022-09-23T06:29:35.032Z,76.77
2022-09-23T06:32:05.163Z,76.70
2022-09-23T06:34:46.248Z,76.84
2022-09-23T06:37:20.686Z,77.17
2022-09-23T06:39:49.581Z,77.09
2022-09-23T06:42:19.386Z,77.48
2022-09-23T06:44:47.946Z,77.67
2022-09-23T06:47:16.264Z,77.47
2022-09-23T06:49:44.787Z,77.66
2022-09-23T06:52:13.059Z,77.30
2022-09-23T06:54:41.529Z,77.29
2022-09-23T06:57:10.303Z,77.22
2022-09-23T06:59:40.060Z,75.87
2022-09-23T07:02:09.454Z,75.65
2022-09-23T07:04:37.949Z,75.66
2022-09-23T07:07:06.374Z,75.02
2022-09-23T07:09:34.938Z,74.12
2022-09-23T07:12:03.797Z,73.62
2022-09-23T07:14:32.171Z,74.21
2022-09-23T07:17:02.022Z,74.29
2022-09-23T07:19:30.469Z,73.36
2022-09-23T07:21:59.156Z,73.41
2022-09-23T07:24:27.917Z,72.52
2022-09-23T07:26:56.390Z,71.92
2022-09-23T07:29:24.875Z,71.93
2022-09-23T07:31:55.750Z,71.79
2022-09-23T07:34:30.291Z,71.68
2022-09-23T07:36:59.079Z,71.09
2022-09-23T07:39:27.680Z,71.44
2022-09-23T07:41:56.157Z,71.77
2022-09-23T07:44:25.501Z,71.45
2022-09-23T07:46:54.386Z,71.17
2022-09-23T07:49:22.652Z,69.90
2022-09-23T07:51:52.849Z,70.42
2022-09-23T07:54:22.303Z,69.72
2022-09-23T07:56:50.668Z,69.17
2022-09-23T07:59:20.116Z,68.91
2022-09-23T08:01:52.552Z,68.75
2022-09-23T08:04:24.195Z,67.83
2022-09-23T08:06:56.666Z,67.22
2022-09-23T08:09:28.029Z,66.63
2022-09-23T08:11:56.818Z,66.03
2022-09-23T08:14:25.262Z,65.73
2022-09-23T08:16:54.143Z,65.96
2022-09-23T08:19:22.516Z,66.88
2022-09-23T08:21:54.434Z,67.15
2022-09-23T08:24:24.510Z,66.79
2022-09-23T08:26:54.699Z,67.03
2022-09-23T08:29:25.780Z,66.79
2022-09-23T08:31:55.532Z,66.51
2022-09-23T08:34:25.044Z,67.46
2022-09-23T08:36:54.882Z,68.12
2022-09-23T08:39:23.785Z,67.81
2022-09-23T08:42:08.892Z,66.97
2022-09-23T08:44:48.697Z,66.91
2022-09-23T08:47:23.637Z,67.19
2022-09-23T08:49:56.800Z,66.79
2022-09-23T08:52:34.597Z,66.71
2022-09-23T08:55:03.773Z,66.19
2022-09-23T08:57:42.734Z,64.16
2022-09-23T09:00:21.547Z,64.80
2022-09-23T09:02:51.092Z,65.29
2022-09-23T09:05:27.490Z,66.05
2022-09-23T09:08:00.036Z,66.42
2022-09-23T09:10:35.276Z,66.37
2022-09-23T09:13:07.845Z,63.84
2022-09-23T09:15:43.197Z,62.92
2022-09-23T09:18:16.520Z,62.91
2022-09-23T09:20:57.078Z,62.90
2022-09-23T09:23:36.136Z,63.23
2022-09-23T09:26:07.201Z,62.80
2022-09-23T09:28:42.370Z,62.70
2022-09-23T09:31:25.550Z,63.50
2022-09-23T09:33:58.976Z,64.27
2022-09-23T09:36:38.955Z,64.49
2022-09-23T09:39:13.384Z,63.51
2022-09-23T09:41:46.824Z,63.33
2022-09-23T09:44:25.176Z,63.94
2022-09-23T09:47:12.302Z,64.09
2022-09-23T09:49:47.830Z,64.53
2022-09-23T09:52:23.476Z,63.82
2022-09-23T09:54:56.137Z,64.32
2022-09-23T09:57:36.088Z,64.97
2022-09-23T10:00:34.775Z,63.28
2022-09-23T10:03:09.123Z,62.85
2022-09-23T10:05:52.372Z,64.05
2022-09-23T10:08:28.591Z,65.40
2022-09-23T10:11:05.506Z,65.86
2022-09-23T10:13:33.849Z,63.53
2022-09-23T10:16:04.200Z,61.91
2022-09-23T10:18:35.921Z,62.22
2022-09-23T10:21:09.749Z,62.71
2022-09-23T10:23:42.739Z,63.85
2022-09-23T10:26:15.177Z,62.72
2022-09-23T10:28:50.251Z,62.57
2022-09-23T10:31:26.944Z,61.97
2022-09-23T10:33:59.719Z,61.85
2022-09-23T10:36:29.688Z,62.99
2022-09-23T10:39:20.586Z,61.61
2022-09-23T10:42:17.654Z,62.14
2022-09-23T10:45:20.807Z,61.47
2022-09-23T10:47:57.626Z,61.94
2022-09-23T10:50:38.329Z,61.77
2022-09-23T10:53:18.947Z,62.46
2022-09-23T10:56:09.352Z,62.52
2022-09-23T10:59:18.573Z,63.33
2022-09-23T11:01:59.190Z,63.06
2022-09-23T11:04:55.222Z,61.83
2022-09-23T11:07:37.269Z,61.50
2022-09-23T11:11:01.537Z,61.50
2022-09-23T11:14:04.390Z,60.59
2022-09-23T11:16:49.302Z,58.32
2022-09-23T11:19:57.799Z,57.50
2022-09-23T11:22:46.091Z,56.42
2022-09-23T11:25:38.155Z,57.45
2022-09-23T11:28:37.619Z,57.46
2022-09-23T11:31:21.979Z,58.79
2022-09-23T11:34:12.242Z,59.69
2022-09-23T11:36:45.800Z,57.59
2022-09-23T11:39:19.220Z,56.70
2022-09-23T11:41:48.315Z,57.37
2022-09-23T11:44:22.314Z,56.52
2022-09-23T11:46:57.060Z,56.33
2022-09-23T11:49:29.782Z,55.65
2022-09-23T11:52:07.937Z,54.21
2022-09-23T11:54:45.214Z,55.08
2022-09-23T11:57:24.091Z,55.01
2022-09-23T11:59:59.937Z,55.35
2022-09-23T12:02:34.709Z,53.67
2022-09-23T12:05:09.414Z,52.83
2022-09-23T12:07:51.356Z,51.67
2022-09-23T12:10:20.258Z,50.90
2022-09-23T12:12:57.056Z,50.72
2022-09-23T12:15:41.587Z,50.34
2022-09-23T12:18:35.732Z,50.03
2022-09-23T12:21:51.247Z,48.46
2022-09-23T12:24:42.010Z,48.07
2022-09-23T12:27:22.898Z,47.43
2022-09-23T12:29:57.180Z,46.17
2022-09-23T12:32:26.500Z,45.08
2022-09-23T12:34:55.123Z,45.04
2022-09-23T12:37:33.929Z,44.97
2022-09-23T12:40:09.738Z,45.91
2022-09-23T12:42:45.946Z,44.61
2022-09-23T12:45:34.743Z,43.97
2022-09-23T12:48:04.919Z,44.67
2022-09-23T12:50:55.317Z,45.31
2022-09-23T12:53:57.221Z,43.52
2022-09-23T12:57:01.676Z,44.18
2022-09-23T12:59:33.441Z,44.14
2022-09-23T13:02:30.139Z,43.60
2022-09-23T13:05:28.670Z,42.61
2022-09-23T13:08:03.718Z,43.09
2022-09-23T13:10:38.376Z,41.59
2022-09-23T13:13:08.361Z,42.70
2022-09-23T13:15:38.526Z,42.05
2022-09-23T13:18:51.377Z,42.75
2022-09-23T13:22:07.846Z,41.57
2022-09-23T13:24:40.569Z,42.14
2022-09-23T13:27:28.140Z,41.29
2022-09-23T13:30:07.674Z,41.42
2022-09-23T13:32:40.895Z,40.03
2022-09-23T13:35:20.125Z,39.58
2022-09-23T13:37:50.600Z,39.67
2022-09-23T13:40:24.447Z,39.11
2022-09-23T13:42:59.108Z,39.56
2022-09-23T13:45:30.885Z,39.72
2022-09-23T13:48:05.872Z,39.17
2022-09-23T13:50:38.363Z,39.28
2022-09-23T13:53:12.246Z,39.89
2022-09-23T13:55:41.387Z,40.12
2022-09-23T13:58:21.209Z,39.44
2022-09-23T14:00:51.074Z,39.96
2022-09-23T14:03:26.669Z,38.21
2022-09-23T14:05:56.938Z,39.29
2022-09-23T14:08:29.630Z,38.00
2022-09-23T14:10:59.887Z,38.05
2022-09-23T14:13:32.145Z,38.80
2022-09-23T14:16:04.126Z,37.73
2022-09-23T14:18:37.372Z,37.87
2022-09-23T14:21:06.603Z,36.92
2022-09-23T14:23:36.348Z,36.33
2022-09-23T14:26:04.942Z,36.35
2022-09-23T14:28:34.077Z,36.35
2022-09-23T14:31:05.529Z,36.86
2022-09-23T14:33:35.388Z,36.62
2022-09-23T14:36:28.934Z,35.78
2022-09-23T14:39:04.702Z,35.97
2022-09-23T14:41:38.243Z,35.93
2022-09-23T14:44:08.585Z,36.31
2022-09-23T14:46:40.014Z,35.79
2022-09-23T14:49:17.471Z,36.33
2022-09-23T14:51:53.394Z,36.19
2022-09-23T14:54:36.767Z,36.14
2022-09-23T14:57:25.777Z,35.80
2022-09-23T14:59:56.638Z,37.03
2022-09-23T15:02:34.843Z,36.91
2022-09-23T15:05:31.952Z,37.25
2022-09-23T15:08:03.950Z,36.79
2022-09-23T15:10:38.431Z,36.80
2022-09-23T15:13:08.726Z,37.01
2022-09-23T15:15:37.911Z,36.64
2022-09-23T15:18:12.446Z,37.19
2022-09-23T15:20:40.919Z,37.36
2022-09-23T15:23:35.041Z,37.60
2022-09-23T15:26:13.144Z,36.94
2022-09-23T15:28:42.404Z,37.34
2022-09-23T15:31:12.796Z,37.57
2022-09-23T15:33:41.267Z,38.27
2022-09-23T15:36:17.183Z,37.79
2022-09-23T15:38:45.969Z,38.05
2022-09-23T15:41:17.252Z,38.62
2022-09-23T15:43:46.818Z,39.25
2022-09-23T15:46:20.553Z,39.61
2022-09-23T15:48:58.628Z,39.50
2022-09-23T15:51:28.646Z,40.19
2022-09-23T15:53:57.433Z,39.69
2022-09-23T15:56:27.557Z,39.99
2022-09-23T15:58:55.840Z,40.34
2022-09-23T16:01:29.223Z,41.13
2022-09-23T16:04:01.035Z,41.45
2022-09-23T16:06:29.626Z,41.64
2022-09-23T16:08:58.166Z,41.88
2022-09-23T16:11:31.746Z,41.71
2022-09-23T16:14:00.749Z,42.03
2022-09-23T16:16:29.692Z,41.92
2022-09-23T16:18:58.168Z,42.18
2022-09-23T16:21:28.576Z,42.02
2022-09-23T16:23:59.310Z,42.24
2022-09-23T16:26:31.964Z,42.31
2022-09-23T16:29:01.471Z,42.97
2022-09-23T16:31:31.258Z,42.59
2022-09-23T16:34:02.050Z,42.92
2022-09-23T16:36:33.467Z,42.98
2022-09-23T16:39:05.444Z,43.00
2022-09-23T16:41:35.669Z,43.00
2022-09-23T16:44:07.258Z,43.19
2022-09-23T16:46:36.404Z,43.37
2022-09-23T16:49:05.757Z,43.59
2022-09-23T16:51:38.285Z,43.62
2022-09-23T16:54:11.144Z,43.67
2022-09-23T16:56:44.991Z,44.05
2022-09-23T16:59:14.643Z,44.20
2022-09-23T17:02:00.838Z,44.69
2022-09-23T17:04:29.365Z,44.76
2022-09-23T17:06:57.881Z,45.04
2022-09-23T17:09:28.897Z,45.55
2022-09-23T17:12:09.101Z,45.87
2022-09-23T17:14:37.355Z,45.80
2022-09-23T17:17:06.645Z,45.77
2022-09-23T17:19:35.625Z,46.41
2022-09-23T17:22:03.865Z,46.55
2022-09-23T17:24:32.158Z,46.91
2022-09-23T17:27:01.846Z,47.37
2022-09-23T17:29:30.501Z,47.67
2022-09-23T17:31:59.010Z,47.77
2022-09-23T17:34:28.799Z,47.71
2022-09-23T17:36:57.133Z,48.04
2022-09-23T17:39:25.798Z,47.83
2022-09-23T17:41:56.062Z,47.96
2022-09-23T17:44:26.354Z,48.11
2022-09-23T17:46:54.620Z,48.44
2022-09-23T17:49:24.183Z,48.24
2022-09-23T17:51:52.608Z,48.54
2022-09-23T17:54:20.937Z,49.20
2022-09-23T17:56:49.367Z,49.49
2022-09-23T17:59:17.726Z,49.69
2022-09-23T18:01:47.993Z,49.82
2022-09-23T18:04:16.575Z,49.75
2022-09-23T18:06:45.588Z,49.70
2022-09-23T18:09:15.215Z,49.83
2022-09-23T18:11:46.858Z,50.00
2022-09-23T18:14:18.415Z,50.66
2022-09-23T18:16:50.461Z,50.94
2022-09-23T18:19:20.926Z,51.25
2022-09-23T18:21:52.084Z,51.20
2022-09-23T18:24:31.758Z,51.24
2022-09-23T18:27:01.618Z,51.22
2022-09-23T18:29:30.118Z,51.22
2022-09-23T18:32:00.166Z,51.53
2022-09-23T18:34:28.607Z,51.78
2022-09-23T18:36:57.243Z,51.95
2022-09-23T18:39:26.157Z,52.17
2022-09-23T18:41:54.782Z,52.28
2022-09-23T18:44:23.437Z,52.20
2022-09-23T18:46:52.037Z,52.21
2022-09-23T18:49:39.427Z,52.59
2022-09-23T18:52:08.040Z,52.79
2022-09-23T18:54:36.409Z,52.73
2022-09-23T18:57:05.243Z,53.11
2022-09-23T18:59:33.611Z,53.22
2022-09-23T19:02:02.077Z,53.30
2022-09-23T19:04:31.875Z,53.25
2022-09-23T19:07:00.254Z,53.20
2022-09-23T19:09:28.843Z,53.40
2022-09-23T19:11:57.384Z,53.47
2022-09-23T19:14:26.403Z,53.59
2022-09-23T19:16:54.855Z,53.62
2022-09-23T19:19:23.156Z,53.76
2022-09-23T19:21:52.997Z,54.34
2022-09-23T19:24:21.566Z,54.54
2022-09-23T19:26:50.352Z,54.51
2022-09-23T19:29:21.752Z,54.54
2022-09-23T19:31:51.156Z,54.25
2022-09-23T19:34:23.918Z,54.45
2022-09-23T19:36:56.216Z,54.99
2022-09-23T19:39:27.106Z,54.85
2022-09-23T19:41:56.543Z,54.75
2022-09-23T19:44:27.267Z,55.08
2022-09-23T19:46:57.399Z,55.12
2022-09-23T19:49:26.740Z,55.51
2022-09-23T19:51:56.890Z,55.96
2022-09-23T19:54:27.482Z,56.12
2022-09-23T19:56:56.911Z,56.20
2022-09-23T19:59:26.288Z,56.86
2022-09-23T20:01:55.189Z,56.64
2022-09-23T20:04:23.739Z,57.28
2022-09-23T20:06:52.084Z,57.72
2022-09-23T20:09:23.087Z,57.94
2022-09-23T20:11:52.186Z,58.38
2022-09-23T20:14:20.774Z,58.53
2022-09-23T20:16:50.247Z,59.12
2022-09-23T20:19:19.214Z,59.43
2022-09-23T20:22:07.823Z,60.06
2022-09-23T20:24:37.611Z,60.32
2022-09-23T20:27:11.109Z,60.90
2022-09-23T20:29:41.994Z,61.25
2022-09-23T20:32:11.470Z,61.43
2022-09-23T20:34:46.570Z,61.63
2022-09-23T20:37:17.598Z,61.65
2022-09-23T20:39:48.906Z,61.64
2022-09-23T20:42:19.337Z,61.98
2022-09-23T20:44:48.543Z,61.98
2022-09-23T20:47:19.321Z,61.84
2022-09-23T20:49:51.529Z,62.11
2022-09-23T20:52:24.931Z,62.17
2022-09-23T20:54:54.940Z,62.21
2022-09-23T20:57:24.989Z,62.69
2022-09-23T20:59:54.593Z,62.90
2022-09-23T21:02:25.666Z,63.18
2022-09-23T21:04:58.622Z,63.06
2022-09-23T21:07:31.120Z,63.21
2022-09-23T21:10:04.800Z,63.20
2022-09-23T21:12:33.228Z,63.38
2022-09-23T21:15:01.527Z,63.64
2022-09-23T21:17:33.605Z,63.94
2022-09-23T21:20:02.173Z,63.53
2022-09-23T21:22:30.689Z,63.54
2022-09-23T21:27:53.967Z,63.65
2022-09-23T21:30:22.938Z,63.93
2022-09-23T21:32:51.502Z,64.02
2022-09-23T21:35:19.880Z,64.08
2022-09-23T21:37:48.394Z,64.49
2022-09-23T21:40:34.635Z,64.79
2022-09-23T21:43:04.462Z,64.68
2022-09-23T21:45:32.941Z,64.72
2022-09-23T21:48:01.478Z,64.87
2022-09-23T21:50:30.085Z,64.73
2022-09-23T21:53:01.188Z,65.04
2022-09-23T21:55:29.622Z,65.13
2022-09-23T21:58:00.133Z,65.11
2022-09-23T22:00:32.935Z,65.47
2022-09-23T22:03:01.487Z,65.60
2022-09-23T22:05:29.877Z,65.74
2022-09-23T22:08:00.520Z,65.88
2022-09-23T22:10:29.084Z,66.01
2022-09-23T22:13:00.442Z,65.97
2022-09-23T22:15:34.397Z,66.00
2022-09-23T22:18:02.833Z,66.20
2022-09-23T22:20:31.746Z,66.35
2022-09-23T22:23:01.804Z,66.48
2022-09-23T22:25:30.120Z,66.51
2022-09-23T22:28:30.635Z,66.63
2022-09-23T22:31:18.074Z,67.04
2022-09-23T22:33:46.630Z,67.25
2022-09-23T22:36:14.835Z,67.49
2022-09-23T22:38:43.129Z,67.47
2022-09-23T22:41:13.923Z,67.63
2022-09-23T22:43:42.142Z,67.82
2022-09-23T22:46:11.819Z,68.07
2022-09-23T22:48:40.164Z,68.27
2022-09-23T22:51:08.612Z,68.29
2022-09-23T22:53:37.204Z,68.47
2022-09-23T22:56:05.476Z,68.66
2022-09-23T22:58:33.737Z,68.79
2022-09-23T23:01:02.483Z,68.87
2022-09-23T23:03:34.273Z,69.15
2022-09-23T23:06:03.569Z,69.23
2022-09-23T23:08:32.523Z,69.53
2022-09-23T23:11:05.877Z,69.83
2022-09-23T23:13:34.227Z,69.98
2022-09-23T23:16:06.481Z,70.08
2022-09-23T23:18:38.881Z,70.00
2022-09-23T23:21:09.856Z,70.31
2022-09-23T23:23:40.277Z,70.42
2022-09-23T23:26:11.888Z,70.63
2022-09-23T23:28:40.685Z,70.86
2022-09-23T23:31:11.687Z,71.03
2022-09-23T23:33:41.939Z,71.00
2022-09-23T23:36:12.278Z,71.31
2022-09-23T23:38:42.873Z,71.33
2022-09-23T23:41:13.873Z,71.41
2022-09-23T23:43:44.198Z,71.49
2022-09-23T23:46:13.057Z,71.51
2022-09-23T23:48:48.195Z,71.43
2022-09-23T23:51:17.149Z,71.48
2022-09-23T23:53:45.651Z,71.73
2022-09-23T23:56:17.466Z,71.69
2022-09-23T23:58:46.194Z,71.74
